Allen, SD

9:22 PM MST on December 22, 2014 (GMT -0700)
RAWS PORCUPINE SD US | Change Station
CLOSE
Current Station
Personal Weather Station
Location: Porcupine, SD
Elevation: 3786 ft
Nearby Weather Stations
Active Advisory: Winter Weather Advisory

Elev 3786 ft 43.29 °N, 102.27 °W | Updated 41 minutes ago

Snow
Snow
24 °F
Feels Like 5 °F
N
36
Wind Variable Wind from NW
Gusts 50.0 mph

Today
High -- | Low -- °F
--% Chance of Precip.
Yesterday
High -- | Low -- °F
Precip. -- in
7:17 AM 4:15 PM
New Moon, 2% visible
Pressure 29.70 in
Visibility 0.8 miles
Clouds Mostly Cloudy 1200 ft
Overcast 1700 ft
Windchill 5 °F
Dew Point 24 °F
Humidity 100%
Rainfall 0.10 in
Snow Depth Not available.
UV 0 out of 12
Pollen .10 out of 12
Air Quality Not available.
Flu Activity Not available.
METAR KIEN 230405Z AUTO 35019G27KT 3/4SM -SN BKN012 OVC017 M02/M04 A2970 RMK AO2 PK WND 35027/0401 P0001 T10171044

More Conditions Fewer Conditions

Pressure 29.70 in
Visibility 0.8 miles
Clouds Mostly Cloudy 1200 ft
Overcast 1700 ft
Windchill 5 °F
Dew Point 24 °F
Humidity 100%
Rainfall 0.10 in
Snow Depth Not available.
UV 0 out of 12
Pollen .10 out of 12
Air Quality Not available.
Flu Activity Not available.
METAR KIEN 230405Z AUTO 35019G27KT 3/4SM -SN BKN012 OVC017 M02/M04 A2970 RMK AO2 PK WND 35027/0401 P0001 T10171044

More Conditions Fewer Conditions

10-Day Weather Forecast

Almanac

Astronomy

Dec. 22, 2014 Rise Set
Actual Time
Civil Twilight
Nautical Twilight
Astronomical Twilight
Moon
Length of Visible Light
Length of Day
Tomorrow will be .
, % of the Moon is Illuminated

Today's Extremes

State Highs State Lows

Community

WunderPhotos

Upload Photos

1,779,776 photos uploaded!

WunderBlogs® & News

Nearby

Air Quality

  Air Quality AQ Index Pollutant
Not available.

Snow Depth

Station Depth Elevation

Earthquake Activity

City Distance Mag. Time & Date
Minimum magnitude displayed is 2.5.

Coastal Water Temperatures

Place Temperature

Nearby Weather Stations